createdAt,value
2023-02-28T00:03:06.101Z,-5.57
2023-02-28T00:08:28.869Z,-5.72
2023-02-28T00:13:54.302Z,-5.50
2023-02-28T00:19:16.729Z,-5.47
2023-02-28T00:24:39.038Z,-5.47
2023-02-28T00:30:02.361Z,-5.76
2023-02-28T00:35:26.436Z,-5.73
2023-02-28T00:40:49.225Z,-5.81
2023-02-28T00:46:12.003Z,-6.01
2023-02-28T00:51:34.316Z,-6.18
2023-02-28T00:56:56.588Z,-5.93
2023-02-28T01:02:19.856Z,-5.82
2023-02-28T01:07:42.897Z,-6.04
2023-02-28T01:13:05.203Z,-6.30
2023-02-28T01:18:28.333Z,-6.13
2023-02-28T01:23:50.644Z,-5.96
2023-02-28T01:29:13.605Z,-6.11
2023-02-28T01:34:35.877Z,-5.88
2023-02-28T01:39:58.141Z,-5.85
2023-02-28T01:45:36.437Z,-5.86
2023-02-28T01:51:02.705Z,-5.80
2023-02-28T01:56:30.178Z,-5.86
2023-02-28T02:01:53.027Z,-6.14
2023-02-28T02:07:15.453Z,-6.40
2023-02-28T02:13:16.956Z,-6.45
2023-02-28T02:18:51.755Z,-6.22
2023-02-28T02:24:42.670Z,-6.17
2023-02-28T02:30:24.702Z,-6.16
2023-02-28T02:36:13.236Z,-6.39
2023-02-28T02:41:54.731Z,-6.47
2023-02-28T02:47:27.179Z,-6.55
2023-02-28T02:52:54.264Z,-6.66
2023-02-28T02:58:23.863Z,-6.33
2023-02-28T03:03:48.051Z,-6.41
2023-02-28T03:09:10.633Z,-6.51
2023-02-28T03:15:01.484Z,-6.73
2023-02-28T03:20:36.970Z,-6.84
2023-02-28T03:26:22.508Z,-6.93
2023-02-28T03:32:01.825Z,-6.79
2023-02-28T03:37:28.487Z,-6.72
2023-02-28T03:42:54.400Z,-6.91
2023-02-28T03:48:24.436Z,-7.16
2023-02-28T03:53:54.366Z,-7.26
2023-02-28T03:59:40.104Z,-7.16
2023-02-28T04:05:02.337Z,-7.26
2023-02-28T04:10:25.472Z,-6.96
2023-02-28T04:15:47.674Z,-6.16
2023-02-28T04:21:11.803Z,-6.20
2023-02-28T04:26:38.697Z,-6.37
2023-02-28T04:32:01.940Z,-6.52
2023-02-28T04:37:26.417Z,-6.79
2023-02-28T04:42:48.829Z,-6.89
2023-02-28T04:48:11.130Z,-7.11
2023-02-28T04:53:33.688Z,-7.01
2023-02-28T04:58:56.057Z,-6.98
2023-02-28T05:04:19.526Z,-7.13
2023-02-28T05:09:41.854Z,-7.22
2023-02-28T05:15:04.075Z,-7.30
2023-02-28T05:20:27.025Z,-7.42
2023-02-28T05:25:49.251Z,-7.39
2023-02-28T05:31:12.046Z,-7.29
2023-02-28T05:36:34.497Z,-7.35
2023-02-28T05:41:57.462Z,-7.32
2023-02-28T05:47:19.686Z,-7.35
2023-02-28T05:52:42.778Z,-7.29
2023-02-28T05:58:05.133Z,-7.48
2023-02-28T06:03:27.610Z,-7.41
2023-02-28T06:08:49.965Z,-7.33
2023-02-28T06:14:23.524Z,-7.50
2023-02-28T06:19:46.001Z,-7.43
2023-02-28T06:25:08.520Z,-7.42
2023-02-28T06:36:05.608Z,-6.78
2023-02-28T06:41:32.714Z,-6.73
2023-02-28T06:46:54.768Z,-6.77
2023-02-28T06:52:17.033Z,-6.57
2023-02-28T06:57:44.239Z,-6.42
2023-02-28T07:03:06.943Z,-6.19
2023-02-28T07:08:30.030Z,-5.88
2023-02-28T07:13:52.281Z,-5.76
2023-02-28T07:19:14.901Z,-5.32
2023-02-28T07:24:37.622Z,-4.86
2023-02-28T07:30:02.058Z,-4.58
2023-02-28T07:35:25.788Z,-4.39
2023-02-28T07:40:49.736Z,-4.08
2023-02-28T07:46:17.202Z,-3.86
2023-02-28T07:51:40.799Z,-3.68
2023-02-28T07:57:03.559Z,-3.50
2023-02-28T08:02:29.737Z,-3.23
2023-02-28T08:07:51.969Z,-2.95
2023-02-28T08:13:14.612Z,-2.64
2023-02-28T08:18:37.434Z,-2.35
2023-02-28T08:24:03.646Z,-2.15
2023-02-28T08:29:25.863Z,-1.92
2023-02-28T08:34:48.293Z,-1.78
2023-02-28T08:40:10.787Z,-1.64
2023-02-28T08:45:37.188Z,-1.50
2023-02-28T08:51:07.565Z,-1.36
2023-02-28T08:56:30.592Z,-1.07
2023-02-28T09:01:52.765Z,-0.82
2023-02-28T09:07:17.407Z,-0.50
2023-02-28T09:12:43.218Z,-0.19
2023-02-28T09:18:05.528Z,-0.20
2023-02-28T09:23:29.397Z,-0.13
2023-02-28T09:28:52.577Z,0.06
2023-02-28T09:34:18.953Z,0.14
2023-02-28T09:39:42.215Z,0.25
2023-02-28T09:45:07.204Z,0.40
2023-02-28T09:50:43.388Z,0.68
2023-02-28T09:56:27.150Z,0.79
2023-02-28T10:02:15.143Z,1.03
2023-02-28T10:07:50.846Z,1.18
2023-02-28T10:13:21.888Z,1.34
2023-02-28T10:18:49.073Z,1.61
2023-02-28T10:24:22.086Z,2.80
2023-02-28T10:29:45.842Z,3.80
2023-02-28T10:35:31.226Z,5.41
2023-02-28T10:40:54.674Z,6.05
2023-02-28T10:46:32.743Z,5.23
2023-02-28T10:52:02.094Z,5.89
2023-02-28T10:57:30.857Z,6.12
2023-02-28T11:02:54.929Z,6.48
2023-02-28T11:08:21.783Z,6.95
2023-02-28T11:13:52.129Z,6.85
2023-02-28T11:19:17.504Z,6.56
2023-02-28T11:24:49.837Z,6.89
2023-02-28T11:30:13.228Z,6.54
2023-02-28T11:35:46.329Z,6.75
2023-02-28T11:41:25.421Z,6.53
2023-02-28T11:46:58.121Z,6.65
2023-02-28T11:52:49.655Z,7.39
2023-02-28T11:58:25.648Z,7.45
2023-02-28T12:03:58.720Z,7.70
2023-02-28T12:09:38.339Z,7.31
2023-02-28T12:15:43.182Z,8.14
2023-02-28T12:21:43.390Z,8.24
2023-02-28T12:27:09.012Z,8.96
2023-02-28T12:32:54.590Z,7.89
2023-02-28T12:38:27.535Z,8.85
2023-02-28T12:43:57.564Z,7.83
2023-02-28T12:49:39.978Z,8.18
2023-02-28T12:55:10.620Z,8.77
2023-02-28T13:00:43.538Z,8.83
2023-02-28T13:06:33.757Z,7.41
2023-02-28T13:12:06.332Z,7.76
2023-02-28T13:17:35.370Z,7.96
2023-02-28T13:23:06.980Z,7.10
2023-02-28T13:28:49.802Z,7.48
2023-02-28T13:34:22.606Z,7.90
2023-02-28T13:40:01.240Z,8.30
2023-02-28T13:45:35.993Z,7.88
2023-02-28T13:51:00.714Z,7.73
2023-02-28T13:56:46.164Z,7.59
2023-02-28T14:02:29.735Z,6.27
2023-02-28T14:13:58.490Z,7.31
2023-02-28T14:19:31.019Z,6.05
2023-02-28T14:25:24.757Z,6.02
2023-02-28T14:31:17.704Z,6.80
2023-02-28T14:36:44.427Z,6.16
2023-02-28T14:42:08.959Z,6.54
2023-02-28T14:47:34.851Z,6.98
2023-02-28T14:53:00.197Z,7.03
2023-02-28T14:58:41.191Z,6.95
2023-02-28T15:04:16.410Z,6.99
2023-02-28T15:09:38.956Z,6.71
2023-02-28T15:15:03.588Z,6.48
2023-02-28T15:20:29.638Z,5.66
2023-02-28T15:25:53.913Z,5.14
2023-02-28T15:31:36.181Z,5.43
2023-02-28T15:36:55.264Z,5.49
2023-02-28T15:42:38.863Z,5.14
2023-02-28T15:48:13.735Z,5.48
2023-02-28T15:53:32.244Z,5.83
2023-02-28T15:58:55.624Z,4.97
2023-02-28T16:04:33.454Z,4.51
2023-02-28T16:09:55.924Z,4.03
2023-02-28T16:15:27.529Z,2.97
2023-02-28T16:20:51.232Z,1.90
2023-02-28T16:26:13.994Z,1.10
2023-02-28T16:31:36.695Z,0.54
2023-02-28T16:37:02.309Z,0.17
2023-02-28T16:42:33.851Z,-0.16
2023-02-28T16:47:56.286Z,-0.52
2023-02-28T16:53:19.104Z,-0.93
2023-02-28T16:58:42.212Z,-1.24
2023-02-28T17:04:04.771Z,-1.45
2023-02-28T17:09:41.981Z,-1.66
2023-02-28T17:14:58.587Z,-1.91
2023-02-28T17:20:25.284Z,-2.17
2023-02-28T17:25:49.594Z,-2.18
2023-02-28T17:31:12.123Z,-2.34
2023-02-28T17:36:38.187Z,-2.42
2023-02-28T17:42:01.950Z,-2.53
2023-02-28T17:47:26.337Z,-2.64
2023-02-28T17:52:48.922Z,-2.87
2023-02-28T17:58:11.777Z,-3.04
2023-02-28T18:03:34.740Z,-2.91
2023-02-28T18:08:57.831Z,-2.89
2023-02-28T18:14:22.066Z,-2.83
2023-02-28T18:19:45.425Z,-2.79
2023-02-28T18:25:09.502Z,-3.12
2023-02-28T18:30:35.302Z,-3.27
2023-02-28T18:35:59.942Z,-3.09
2023-02-28T18:41:26.595Z,-3.20
2023-02-28T18:46:49.677Z,-3.36
2023-02-28T18:52:12.749Z,-3.27
2023-02-28T18:57:36.116Z,-3.25
2023-02-28T19:02:59.076Z,-3.24
2023-02-28T19:08:23.343Z,-3.23
2023-02-28T19:13:47.226Z,-3.53
2023-02-28T19:19:10.719Z,-3.61
2023-02-28T19:24:33.836Z,-3.26
2023-02-28T19:29:59.724Z,-3.52
2023-02-28T19:35:24.539Z,-3.45
2023-02-28T19:40:49.158Z,-3.56
2023-02-28T19:46:13.725Z,-3.57
2023-02-28T19:51:38.538Z,-3.23
2023-02-28T19:57:02.324Z,-2.71
2023-02-28T20:02:31.851Z,-2.93
2023-02-28T20:07:56.222Z,-3.23
2023-02-28T20:13:25.745Z,-3.23
2023-02-28T20:18:47.221Z,-3.46
2023-02-28T20:24:11.828Z,-3.53
2023-02-28T20:29:34.935Z,-3.82
2023-02-28T20:34:59.608Z,-3.81
2023-02-28T20:40:22.862Z,-3.68
2023-02-28T20:45:47.445Z,-3.80
2023-02-28T20:51:13.197Z,-4.07
2023-02-28T20:56:39.514Z,-3.94
2023-02-28T21:02:04.403Z,-4.05
2023-02-28T21:07:29.321Z,-4.21
2023-02-28T21:12:56.133Z,-4.45
2023-02-28T21:18:20.467Z,-4.39
2023-02-28T21:23:46.584Z,-4.48
2023-02-28T21:29:16.653Z,-4.53
2023-02-28T21:34:41.975Z,-4.49
2023-02-28T21:40:06.315Z,-4.56
2023-02-28T21:45:31.596Z,-4.63
2023-02-28T21:51:07.586Z,-4.73
2023-02-28T21:56:46.561Z,-4.78
2023-02-28T22:02:11.040Z,-4.84
2023-02-28T22:07:35.368Z,-4.83
2023-02-28T22:12:59.463Z,-4.74
2023-02-28T22:18:24.232Z,-4.67
2023-02-28T22:23:49.843Z,-4.67
2023-02-28T22:29:14.481Z,-4.64
2023-02-28T22:34:38.868Z,-4.59
2023-02-28T22:40:03.594Z,-4.30
2023-02-28T22:45:27.932Z,-4.10
2023-02-28T22:50:52.741Z,-4.11
2023-02-28T22:56:18.079Z,-3.85
2023-02-28T23:01:45.246Z,-3.95
2023-02-28T23:07:10.642Z,-3.94
2023-02-28T23:12:34.323Z,-4.01
2023-02-28T23:17:59.399Z,-3.94
2023-02-28T23:23:24.137Z,-3.91
2023-02-28T23:28:48.767Z,-3.86
2023-02-28T23:34:13.564Z,-3.99
2023-02-28T23:39:38.820Z,-4.20
2023-02-28T23:45:03.528Z,-4.41
2023-02-28T23:50:27.391Z,-4.58
2023-02-28T23:55:55.995Z,-4.55
